Time;durP1;ratioP1;P1;durP2;ratioP2;P2;SDS_P1;SDS_P2;PMS_P1;PMS_P2;Temp;Humidity;BMP_temperature;BMP_pressure;BME280_temperature;BME280_humidity;BME280_pressure;Samples;Min_cycle;Max_cycle;Signal;HPM_P1;HPM_P2
2023/07/26 00:00:08;;;;;;;3.93;1.70;;;;;;;10.78;100.00;100313.69;686650;28;1959;-62
2023/07/26 00:00:33;;;;;;;3.67;1.60;;;;;;;10.77;100.00;100312.81;686886;28;717;-62
2023/07/26 00:00:54;;;;;;;3.27;1.60;;;;;;;10.78;100.00;100314.53;687038;28;4629;-62
2023/07/26 00:01:15;;;;;;;4.35;1.73;;;;;;;10.79;100.00;100311.06;686168;28;1488;-62
2023/07/26 00:01:35;;;;;;;5.15;1.70;;;;;;;10.82;100.00;100313.63;684039;28;896;-62
2023/07/26 00:01:56;;;;;;;4.30;1.70;;;;;;;10.82;100.00;100311.00;685011;28;988;-62
2023/07/26 00:02:16;;;;;;;2.88;1.48;;;;;;;10.82;100.00;100310.16;683189;28;1530;-62
2023/07/26 00:02:37;;;;;;;2.80;1.57;;;;;;;10.79;100.00;100308.44;683310;28;845;-62
2023/07/26 00:02:57;;;;;;;3.50;1.60;;;;;;;10.79;100.00;100316.28;685079;28;896;-62
2023/07/26 00:03:17;;;;;;;3.17;1.60;;;;;;;10.80;100.00;100310.19;686909;28;1568;-62
2023/07/26 00:03:38;;;;;;;2.70;1.50;;;;;;;10.79;100.00;100311.06;686948;28;1082;-62
2023/07/26 00:03:58;;;;;;;3.60;1.70;;;;;;;10.76;100.00;100313.72;687349;28;4375;-62
2023/07/26 00:04:19;;;;;;;3.38;1.73;;;;;;;10.78;100.00;100311.94;687055;28;1445;-62
2023/07/26 00:04:39;;;;;;;3.57;1.70;;;;;;;10.79;100.00;100316.28;687132;28;803;-62
2023/07/26 00:04:59;;;;;;;3.90;1.80;;;;;;;10.80;100.00;100314.53;688197;28;816;-62
2023/07/26 00:05:20;;;;;;;3.40;1.70;;;;;;;10.79;100.00;100315.44;687136;28;1548;-62
2023/07/26 00:05:40;;;;;;;3.67;1.80;;;;;;;10.78;100.00;100311.94;687768;28;904;-62
2023/07/26 00:06:01;;;;;;;5.72;2.00;;;;;;;10.79;100.00;100308.44;687800;28;865;-62
2023/07/26 00:06:22;;;;;;;6.32;1.95;;;;;;;10.80;100.00;100307.56;686939;28;1524;-62
2023/07/26 00:06:42;;;;;;;3.87;1.70;;;;;;;10.82;100.00;100315.38;688728;28;1225;-62
2023/07/26 00:07:03;;;;;;;4.07;1.73;;;;;;;10.81;100.00;100317.13;686859;28;4419;-62
2023/07/26 00:07:23;;;;;;;3.03;1.70;;;;;;;10.83;100.00;100309.28;688008;28;896;-62
2023/07/26 00:07:43;;;;;;;2.92;1.70;;;;;;;10.84;100.00;100313.59;688639;28;916;-62
2023/07/26 00:08:04;;;;;;;3.03;1.80;;;;;;;10.84;100.00;100305.75;685186;28;1600;-62
2023/07/26 00:08:24;;;;;;;3.22;1.70;;;;;;;10.84;100.00;100313.59;687611;28;863;-62
2023/07/26 00:08:44;;;;;;;4.03;1.80;;;;;;;10.85;100.00;100313.59;686916;28;1129;-62
2023/07/26 00:09:07;;;;;;;3.80;1.70;;;;;;;10.85;100.00;100318.81;686887;28;1501;-62
2023/07/26 00:09:28;;;;;;;3.83;1.60;;;;;;;10.85;100.00;100310.97;687365;28;959;-62
2023/07/26 00:09:48;;;;;;;4.20;1.60;;;;;;;10.86;100.00;100307.47;687170;28;5063;-62
2023/07/26 00:10:09;;;;;;;4.60;1.70;;;;;;;10.85;100.00;100308.34;687668;28;1565;-62
2023/07/26 00:10:29;;;;;;;4.25;1.70;;;;;;;10.85;100.00;100313.59;687399;28;1246;-62
2023/07/26 00:10:50;;;;;;;3.27;1.60;;;;;;;10.86;100.00;100314.47;687602;28;907;-62
2023/07/26 00:11:10;;;;;;;3.45;1.58;;;;;;;10.85;100.00;100316.19;687337;28;1493;-62
2023/07/26 00:11:30;;;;;;;4.47;1.80;;;;;;;10.84;100.00;100311.88;688335;28;884;-62
2023/07/26 00:11:51;;;;;;;4.25;1.90;;;;;;;10.85;100.00;100318.81;686808;28;781;-62
2023/07/26 00:12:11;;;;;;;3.40;1.80;;;;;;;10.86;100.00;100309.25;687208;28;1475;-62
2023/07/26 00:12:32;;;;;;;4.33;1.90;;;;;;;10.85;100.00;100313.59;688521;28;896;-62
2023/07/26 00:12:52;;;;;;;4.50;1.80;;;;;;;10.83;100.00;100315.38;687176;28;4741;-62
2023/07/26 00:13:15;;;;;;;4.87;2.00;;;;;;;10.84;100.00;100311.88;687335;28;1521;-62
2023/07/26 00:13:36;;;;;;;3.63;1.90;;;;;;;10.84;100.00;100311.88;688614;28;903;-62
2023/07/26 00:13:56;;;;;;;3.53;1.60;;;;;;;10.84;100.00;100311.88;687750;28;1186;-62
2023/07/26 00:14:17;;;;;;;5.70;1.55;;;;;;;10.84;100.00;100311.88;687384;28;1521;-62
2023/07/26 00:14:37;;;;;;;4.50;1.60;;;;;;;10.85;100.00;100308.34;688214;28;794;-62
2023/07/26 00:14:57;;;;;;;3.10;1.50;;;;;;;10.86;100.00;100312.72;687785;28;1273;-62
2023/07/26 00:15:18;;;;;;;2.87;1.60;;;;;;;10.87;100.00;100316.22;687719;28;1455;-62
2023/07/26 00:15:38;;;;;;;3.13;1.50;;;;;;;10.87;100.00;100316.22;685640;28;1224;-62
2023/07/26 00:15:59;;;;;;;3.20;1.53;;;;;;;10.88;100.00;100318.81;684455;28;4716;-62
2023/07/26 00:16:19;;;;;;;3.90;1.53;;;;;;;10.87;100.00;100317.06;683689;28;2979;-62
2023/07/26 00:16:40;;;;;;;3.67;1.50;;;;;;;10.85;100.00;100313.59;685782;28;909;-62
2023/07/26 00:17:01;;;;;;;3.97;1.67;;;;;;;10.84;100.00;100316.22;688199;28;992;-62
2023/07/26 00:17:22;;;;;;;4.68;1.80;;;;;;;10.83;100.00;100310.13;685984;28;1533;-62
2023/07/26 00:17:42;;;;;;;3.40;1.73;;;;;;;10.85;100.00;100318.81;689208;28;1330;-62
2023/07/26 00:18:02;;;;;;;3.47;1.80;;;;;;;10.84;100.00;100311.00;688138;28;864;-62
2023/07/26 00:18:23;;;;;;;4.13;1.80;;;;;;;10.84;100.00;100311.00;688556;28;801;-62
2023/07/26 00:18:43;;;;;;;3.03;1.70;;;;;;;10.82;100.00;100312.78;689028;28;880;-62
2023/07/26 00:19:03;;;;;;;4.47;1.90;;;;;;;10.80;100.00;100315.41;688087;28;4767;-62
2023/07/26 00:19:24;;;;;;;4.07;1.58;;;;;;;10.81;100.00;100316.25;687779;28;1363;-62
2023/07/26 00:19:44;;;;;;;3.67;1.50;;;;;;;10.83;100.00;100312.75;687727;28;1189;-62
2023/07/26 00:20:06;;;;;;;3.40;1.60;;;;;;;10.84;100.00;100316.22;688254;28;1926;-62
2023/07/26 00:20:26;;;;;;;3.60;1.60;;;;;;;10.85;100.00;100321.44;688082;28;911;-64
2023/07/26 00:20:46;;;;;;;3.83;1.50;;;;;;;10.85;100.00;100313.59;690709;28;868;-62
2023/07/26 00:21:07;;;;;;;3.80;1.50;;;;;;;10.85;100.00;100318.81;687432;28;1539;-62
2023/07/26 00:21:28;;;;;;;3.40;1.70;;;;;;;10.87;100.00;100314.44;687089;28;1490;-62
2023/07/26 00:21:49;;;;;;;2.65;1.52;;;;;;;10.87;100.00;100316.22;687522;28;4377;-62
2023/07/26 00:22:10;;;;;;;3.05;1.60;;;;;;;10.85;100.00;100313.59;687039;28;1575;-62
2023/07/26 00:22:30;;;;;;;4.53;1.60;;;;;;;10.85;100.00;100312.72;687730;28;846;-62
2023/07/26 00:22:50;;;;;;;3.47;1.65;;;;;;;10.83;100.00;100314.50;686607;28;884;-62
2023/07/26 00:23:11;;;;;;;4.73;1.70;;;;;;;10.81;100.00;100311.88;682342;28;1691;-62
2023/07/26 00:23:31;;;;;;;3.23;1.53;;;;;;;10.80;100.00;100307.56;682400;29;762;-62
2023/07/26 00:23:51;;;;;;;3.75;1.75;;;;;;;10.81;100.00;100322.34;682749;29;928;-62
2023/07/26 00:24:12;;;;;;;4.27;1.80;;;;;;;10.80;100.00;100318.03;681887;28;1464;-62
2023/07/26 00:24:32;;;;;;;4.18;1.92;;;;;;;10.80;100.00;100311.91;682196;28;1197;-62
2023/07/26 00:24:54;;;;;;;3.70;1.80;;;;;;;10.78;100.00;100311.94;685328;28;4537;-62
2023/07/26 00:25:14;;;;;;;4.22;1.80;;;;;;;10.78;100.00;100306.69;686444;28;1583;-62
2023/07/26 00:25:34;;;;;;;2.43;1.40;;;;;;;10.80;100.00;100309.28;687742;28;777;-62
2023/07/26 00:25:55;;;;;;;2.60;1.63;;;;;;;10.80;100.00;100312.78;690884;28;908;-62
2023/07/26 00:26:15;;;;;;;2.90;1.70;;;;;;;10.80;100.00;100312.78;685925;28;1757;-62
2023/07/26 00:26:35;;;;;;;2.67;1.60;;;;;;;10.79;100.00;100316.28;686736;28;976;-62
2023/07/26 00:26:56;;;;;;;2.97;1.70;;;;;;;10.80;100.00;100309.28;685663;28;813;-62
2023/07/26 00:27:17;;;;;;;3.58;1.65;;;;;;;10.81;100.00;100311.88;686530;28;1437;-62
2023/07/26 00:27:38;;;;;;;3.22;1.60;;;;;;;10.82;100.00;100318.00;686829;28;1020;-62
2023/07/26 00:27:58;;;;;;;3.47;1.70;;;;;;;10.83;100.00;100314.50;685752;28;4459;-62
2023/07/26 00:28:19;;;;;;;3.58;1.90;;;;;;;10.84;100.00;100314.50;687478;28;1647;-62
2023/07/26 00:28:39;;;;;;;3.70;1.77;;;;;;;10.84;100.00;100309.25;687500;28;872;-62
2023/07/26 00:29:00;;;;;;;4.18;1.70;;;;;;;10.85;100.00;100305.72;689500;28;1156;-62
2023/07/26 00:29:20;;;;;;;3.03;1.60;;;;;;;10.86;100.00;100309.25;687308;28;1551;-62
2023/07/26 00:29:41;;;;;;;3.17;1.60;;;;;;;10.86;100.00;100314.47;687756;28;955;-62
2023/07/26 00:30:01;;;;;;;3.43;1.60;;;;;;;10.87;100.00;100316.22;688136;28;856;-62
2023/07/26 00:30:21;;;;;;;3.90;1.70;;;;;;;10.87;100.00;100317.06;687465;28;1510;-62
2023/07/26 00:30:43;;;;;;;3.33;1.58;;;;;;;10.88;100.00;100313.56;688792;28;1945;-62
2023/07/26 00:31:06;;;;;;;3.85;1.70;;;;;;;10.90;100.00;100317.00;688576;28;4916;-62
2023/07/26 00:31:26;;;;;;;3.13;1.60;;;;;;;10.92;100.00;100318.75;690587;28;1264;-62
2023/07/26 00:31:46;;;;;;;3.42;1.70;;;;;;;10.93;100.00;100315.25;687757;28;1240;-62
2023/07/26 00:32:07;;;;;;;4.10;1.80;;;;;;;10.89;100.00;100312.66;688230;28;903;-62
2023/07/26 00:32:28;;;;;;;4.80;2.00;;;;;;;10.89;100.00;100311.81;688868;28;911;-62
2023/07/26 00:32:50;;;;;;;3.88;1.70;;;;;;;10.87;100.00;100308.38;683409;28;1271;-62
2023/07/26 00:33:10;;;;;;;3.60;1.60;;;;;;;10.86;100.00;100312.72;682137;28;1426;-62
2023/07/26 00:33:32;;;;;;;3.25;1.58;;;;;;;10.88;100.00;100310.97;682034;29;1317;-63
2023/07/26 00:33:52;;;;;;;3.38;1.52;;;;;;;10.92;100.00;100314.38;679584;28;4412;-62
2023/07/26 00:34:13;;;;;;;2.90;1.50;;;;;;;10.95;100.00;100313.47;678541;29;1475;-63
2023/07/26 00:34:34;;;;;;;2.77;1.50;;;;;;;10.96;100.00;100312.59;675689;29;1139;-62
2023/07/26 00:34:55;;;;;;;3.72;1.60;;;;;;;10.98;100.00;100313.44;679862;29;1447;-62
2023/07/26 00:35:21;;;;;;;4.18;1.60;;;;;;;10.99;100.00;100316.03;678144;29;2829;-62
2023/07/26 00:35:42;;;;;;;3.65;1.70;;;;;;;11.00;100.00;100314.31;680999;29;1315;-63
2023/07/26 00:36:03;;;;;;;3.83;1.70;;;;;;;11.06;100.00;100322.06;680842;29;1144;-63
2023/07/26 00:36:23;;;;;;;4.47;1.77;;;;;;;11.05;100.00;100317.75;680059;29;1371;-62
2023/07/26 00:36:44;;;;;;;3.57;1.60;;;;;;;11.04;100.00;100314.22;681212;29;797;-62
2023/07/26 00:37:05;;;;;;;4.10;1.45;;;;;;;11.03;100.00;100314.25;680639;28;4489;-63
2023/07/26 00:37:25;;;;;;;4.82;1.70;;;;;;;11.04;100.00;100318.63;683337;28;956;-63
2023/07/26 00:37:46;;;;;;;3.65;1.45;;;;;;;11.04;100.00;100316.00;681998;28;1173;-63
2023/07/26 00:38:06;;;;;;;2.67;1.50;;;;;;;11.03;100.00;100320.34;682313;28;1705;-63
2023/07/26 00:38:27;;;;;;;3.28;1.40;;;;;;;11.05;100.00;100318.59;684691;28;819;-63
2023/07/26 00:38:47;;;;;;;3.17;1.50;;;;;;;11.08;100.00;100315.94;684112;28;5257;-63
2023/07/26 00:39:07;;;;;;;2.23;1.40;;;;;;;11.07;100.00;100313.34;681350;28;1595;-63
2023/07/26 00:39:30;;;;;;;3.05;1.42;;;;;;;11.03;100.00;100316.88;683145;28;792;-63
2023/07/26 00:39:51;;;;;;;3.63;1.80;;;;;;;10.98;100.00;100316.06;684973;28;4358;-63
2023/07/26 00:40:11;;;;;;;3.40;1.75;;;;;;;10.96;100.00;100320.47;683853;28;1918;-62
2023/07/26 00:40:32;;;;;;;3.17;1.40;;;;;;;10.94;100.00;100317.84;685317;28;1153;-63
2023/07/26 00:40:53;;;;;;;3.40;1.40;;;;;;;10.94;100.00;100311.75;685589;28;987;-63
2023/07/26 00:41:13;;;;;;;3.13;1.50;;;;;;;10.94;100.00;100311.75;681523;28;1529;-62
2023/07/26 00:41:34;;;;;;;3.43;1.67;;;;;;;10.92;100.00;100314.38;684386;28;1146;-63
2023/07/26 00:41:54;;;;;;;2.50;1.70;;;;;;;10.91;100.00;100317.91;682123;28;1536;-63
2023/07/26 00:42:18;;;;;;;3.60;1.80;;;;;;;10.92;100.00;100318.75;683106;28;1959;-63
2023/07/26 00:42:39;;;;;;;3.35;1.63;;;;;;;10.93;100.00;100317.88;685741;28;885;-62
2023/07/26 00:42:59;;;;;;;3.90;2.00;;;;;;;10.90;100.00;100317.00;687508;28;4348;-63
2023/07/26 00:43:19;;;;;;;3.80;1.85;;;;;;;10.87;100.00;100316.22;686693;28;1556;-63
2023/07/26 00:43:40;;;;;;;3.20;1.70;;;;;;;10.86;100.00;100315.31;688444;28;955;-62
2023/07/26 00:44:00;;;;;;;3.45;1.75;;;;;;;10.85;100.00;100315.34;687381;28;1267;-62
2023/07/26 00:44:21;;;;;;;3.80;1.73;;;;;;;10.86;100.00;100317.94;686765;28;1646;-63
2023/07/26 00:44:41;;;;;;;3.60;1.70;;;;;;;10.89;100.00;100317.91;687718;28;876;-63
2023/07/26 00:45:02;;;;;;;3.63;1.60;;;;;;;10.93;100.00;100317.88;688139;28;1193;-63
2023/07/26 00:45:27;;;;;;;4.22;1.67;;;;;;;10.96;100.00;100312.59;685356;28;1531;-62
2023/07/26 00:45:48;;;;;;;4.50;1.70;;;;;;;10.94;100.00;100316.97;684651;28;4364;-62
2023/07/26 00:46:08;;;;;;;3.58;1.55;;;;;;;10.91;100.00;100320.53;684335;28;1599;-63
2023/07/26 00:46:29;;;;;;;3.13;1.50;;;;;;;10.92;100.00;100318.75;684961;28;1086;-63
2023/07/26 00:46:50;;;;;;;2.78;1.60;;;;;;;10.94;100.00;100314.34;685270;28;838;-63
2023/07/26 00:47:11;;;;;;;3.13;1.57;;;;;;;10.94;100.00;100315.25;685190;28;1492;-63
2023/07/26 00:47:31;;;;;;;3.53;1.55;;;;;;;10.97;100.00;100322.19;688250;28;833;-63
2023/07/26 00:47:52;;;;;;;3.22;1.60;;;;;;;10.98;100.00;100318.66;687694;28;1249;-63
2023/07/26 00:48:12;;;;;;;3.00;1.67;;;;;;;11.01;100.00;100318.66;685577;28;1445;-62
2023/07/26 00:48:34;;;;;;;3.10;1.60;;;;;;;11.06;100.00;100315.09;687397;28;1156;-62
2023/07/26 00:48:55;;;;;;;3.88;1.80;;;;;;;11.07;100.00;100322.03;687404;28;4798;-63
2023/07/26 00:49:15;;;;;;;3.08;1.58;;;;;;;11.06;100.00;100317.72;687150;28;1598;-63
2023/07/26 00:49:36;;;;;;;3.90;1.65;;;;;;;11.05;100.00;100312.50;686356;28;754;-63
2023/07/26 00:49:57;;;;;;;3.10;1.58;;;;;;;11.05;100.00;100315.13;683782;28;1102;-63
2023/07/26 00:50:18;;;;;;;3.00;1.60;;;;;;;11.03;100.00;100314.25;681796;28;1523;-63
2023/07/26 00:50:41;;;;;;;3.60;1.63;;;;;;;11.03;100.00;100317.72;682650;29;971;-63
2023/07/26 00:51:02;;;;;;;3.90;1.70;;;;;;;11.01;100.00;100323.88;681245;29;981;-62
2023/07/26 00:51:23;;;;;;;2.90;1.50;;;;;;;11.01;100.00;100310.81;684095;28;1771;-63
2023/07/26 00:51:44;;;;;;;3.42;1.73;;;;;;;11.00;100.00;100319.53;686786;28;1150;-63
2023/07/26 00:52:05;;;;;;;3.47;1.60;;;;;;;10.99;100.00;100318.66;684535;28;5820;-63
2023/07/26 00:52:26;;;;;;;3.45;1.60;;;;;;;10.99;100.00;100315.19;687799;28;924;-62
2023/07/26 00:52:46;;;;;;;2.95;1.60;;;;;;;11.00;100.00;100316.91;684957;28;864;-62
2023/07/26 00:53:09;;;;;;;2.88;1.50;;;;;;;11.04;100.00;100324.69;683391;28;1540;-62
2023/07/26 00:53:30;;;;;;;3.20;1.50;;;;;;;11.05;100.00;100320.34;682005;28;1171;-63
2023/07/26 00:53:52;;;;;;;4.03;1.70;;;;;;;11.07;100.00;100319.41;682829;28;838;-62
2023/07/26 00:54:13;;;;;;;3.35;1.70;;;;;;;11.11;100.00;100319.41;684311;28;1433;-63
2023/07/26 00:54:33;;;;;;;3.67;1.70;;;;;;;11.10;100.00;100328.13;685280;28;826;-62
2023/07/26 00:54:55;;;;;;;3.73;1.70;;;;;;;11.06;100.00;100322.06;682913;28;4806;-63
2023/07/26 00:55:16;;;;;;;4.65;1.75;;;;;;;11.05;100.00;100322.97;684872;28;1592;-62
2023/07/26 00:55:36;;;;;;;4.00;1.70;;;;;;;11.05;100.00;100325.59;685301;28;1141;-63
2023/07/26 00:55:58;;;;;;;3.47;1.77;;;;;;;11.03;100.00;100329.94;680904;28;960;-63
2023/07/26 00:56:18;;;;;;;3.38;1.73;;;;;;;11.01;100.00;100329.13;681167;28;1486;-63
2023/07/26 00:56:39;;;;;;;3.33;1.63;;;;;;;10.99;100.00;100333.50;682012;28;1150;-63
2023/07/26 00:57:01;;;;;;;3.67;1.60;;;;;;;10.97;100.00;100328.28;685166;28;846;-63
2023/07/26 00:57:23;;;;;;;3.85;1.58;;;;;;;10.97;100.00;100323.03;682125;28;1593;-63
2023/07/26 00:57:45;;;;;;;4.13;1.80;;;;;;;10.96;100.00;100326.53;682062;28;818;-62
2023/07/26 00:58:06;;;;;;;2.95;1.60;;;;;;;10.98;100.00;100329.13;683275;28;4619;-62
2023/07/26 00:58:26;;;;;;;3.45;1.40;;;;;;;10.97;100.00;100322.19;684188;28;1066;-63
2023/07/26 00:58:49;;;;;;;4.13;1.50;;;;;;;10.97;100.00;100328.28;685371;28;845;-63
2023/07/26 00:59:10;;;;;;;5.37;1.80;;;;;;;10.96;100.00;100326.53;681766;28;1410;-63
2023/07/26 00:59:31;;;;;;;4.43;1.70;;;;;;;10.96;100.00;100330.91;683595;28;734;-63
2023/07/26 00:59:52;;;;;;;3.53;1.53;;;;;;;10.96;100.00;100325.69;685551;28;766;-63
2023/07/26 01:00:13;;;;;;;2.83;1.48;;;;;;;10.96;100.00;100325.69;683912;28;1972;-63
2023/07/26 01:00:34;;;;;;;3.22;1.63;;;;;;;10.97;100.00;100332.66;685016;28;964;-63
2023/07/26 01:00:55;;;;;;;2.88;1.58;;;;;;;10.97;100.00;100327.44;684069;28;4494;-62
2023/07/26 01:01:15;;;;;;;3.53;1.67;;;;;;;10.97;100.00;100328.28;686270;28;1430;-63
2023/07/26 01:01:36;;;;;;;4.97;1.70;;;;;;;10.98;100.00;100323.91;687103;28;1270;-62
2023/07/26 01:01:56;;;;;;;3.97;1.60;;;;;;;10.97;100.00;100328.28;687787;28;1320;-63
2023/07/26 01:02:17;;;;;;;3.33;1.70;;;;;;;10.97;100.00;100333.50;686840;28;1583;-63
2023/07/26 01:02:37;;;;;;;3.58;1.70;;;;;;;10.96;100.00;100339.63;687910;28;932;-62
2023/07/26 01:02:57;;;;;;;3.70;1.70;;;;;;;10.96;100.00;100330.91;687777;28;952;-63
2023/07/26 01:03:18;;;;;;;4.13;1.60;;;;;;;10.96;100.00;100330.91;686711;28;1650;-62
2023/07/26 01:03:39;;;;;;;3.40;1.50;;;;;;;10.95;100.00;100323.94;685186;28;1356;-63
2023/07/26 01:03:59;;;;;;;2.85;1.50;;;;;;;10.98;100.00;100334.38;682184;28;4318;-63
2023/07/26 01:04:21;;;;;;;2.90;1.60;;;;;;;10.99;100.00;100328.25;678387;29;1564;-62
2023/07/26 01:04:43;;;;;;;3.50;1.60;;;;;;;10.99;100.00;100336.97;676310;29;913;-63
2023/07/26 01:05:04;;;;;;;3.47;1.60;;;;;;;10.99;100.00;100325.63;679849;29;1027;-63
2023/07/26 01:05:31;;;;;;;3.17;1.70;;;;;;;11.00;100.00;100328.22;679536;29;1585;-63
2023/07/26 01:06:22;;;;;;;3.72;1.60;;;;;;;11.02;100.00;100333.44;684316;28;1660;-63
2023/07/26 01:07:07;;;;;;;4.78;1.70;;;;;;;11.04;100.00;100331.69;685728;28;980;-63
2023/07/26 01:07:55;;;;;;;3.90;1.63;;;;;;;11.06;100.00;100330.78;685574;28;6250;-62
2023/07/26 01:08:26;;;;;;;4.40;1.90;;;;;;;11.06;100.00;100328.19;686013;28;1464;-63
2023/07/26 01:08:56;;;;;;;3.38;1.40;;;;;;;11.07;100.00;100326.41;686040;28;992;-62
2023/07/26 01:09:41;;;;;;;2.75;1.45;;;;;;;11.06;100.00;100333.41;686663;28;1575;-63
2023/07/26 01:10:16;;;;;;;3.65;1.60;;;;;;;11.05;100.00;100325.59;685516;28;4343;-63
2023/07/26 01:11:18;;;;;;;3.35;1.67;;;;;;;11.04;100.00;100334.31;687228;28;960;-62
2023/07/26 01:11:53;;;;;;;3.40;1.60;;;;;;;11.04;100.00;100327.31;683754;28;1155;-63
2023/07/26 01:12:19;;;;;;;3.55;1.70;;;;;;;11.02;100.00;100331.72;681473;28;1287;-62
2023/07/26 01:12:47;;;;;;;3.20;1.70;;;;;;;11.05;100.00;100336.06;678301;29;3254;-63
2023/07/26 01:13:20;;;;;;;3.50;1.50;;;;;;;11.04;100.00;100332.53;678034;29;4804;-62
2023/07/26 01:14:19;;;;;;;3.70;1.50;;;;;;;11.02;100.00;100330.81;680678;29;1019;-63
2023/07/26 01:15:02;;;;;;;2.78;1.50;;;;;;;11.03;100.00;100327.34;681954;29;1257;-62
2023/07/26 01:15:33;;;;;;;5.95;1.75;;;;;;;11.04;100.00;100334.31;682099;28;1908;-63
2023/07/26 01:15:53;;;;;;;2.92;1.50;;;;;;;11.03;100.00;100337.81;683797;28;4383;-63
2023/07/26 01:16:15;;;;;;;2.93;1.57;;;;;;;11.02;100.00;100336.06;683340;28;1454;-63
2023/07/26 01:16:38;;;;;;;3.55;1.55;;;;;;;11.01;100.00;100336.97;684220;28;936;-63
2023/07/26 01:16:59;;;;;;;2.88;1.60;;;;;;;11.00;100.00;100335.22;682609;28;873;-62
2023/07/26 01:17:19;;;;;;;4.27;1.80;;;;;;;10.99;100.00;100336.09;682158;28;1461;-63
2023/07/26 01:17:39;;;;;;;3.85;1.77;;;;;;;10.99;100.00;100334.34;681460;28;1550;-63
2023/07/26 01:18:10;;;;;;;3.30;1.50;;;;;;;10.99;100.00;100330.88;680491;29;878;-63
2023/07/26 01:18:30;;;;;;;4.63;1.70;;;;;;;10.99;100.00;100334.34;678263;29;1031;-63
2023/07/26 01:18:51;;;;;;;4.20;1.70;;;;;;;11.00;100.00;100335.22;679483;29;4924;-62
2023/07/26 01:19:11;;;;;;;3.22;1.60;;;;;;;11.00;100.00;100333.47;680053;28;1414;-62
2023/07/26 01:19:32;;;;;;;3.60;1.60;;;;;;;11.02;100.00;100330.81;680435;29;1290;-63
2023/07/26 01:19:52;;;;;;;4.03;1.60;;;;;;;11.00;100.00;100332.63;683978;28;849;-63
2023/07/26 01:20:12;;;;;;;2.50;1.50;;;;;;;11.00;100.00;100332.63;681248;28;1918;-62
2023/07/26 01:20:33;;;;;;;2.92;1.52;;;;;;;11.01;100.00;100329.13;685350;28;949;-63
2023/07/26 01:20:53;;;;;;;3.07;1.60;;;;;;;11.00;100.00;100336.09;682808;28;1155;-63
2023/07/26 01:21:14;;;;;;;3.80;1.70;;;;;;;11.01;100.00;100332.59;681410;28;1633;-61
2023/07/26 01:21:34;;;;;;;3.60;1.53;;;;;;;11.00;100.00;100333.47;685071;28;853;-62
2023/07/26 01:21:55;;;;;;;3.33;1.63;;;;;;;11.00;100.00;100327.38;684969;28;4307;-63
2023/07/26 01:22:16;;;;;;;2.83;1.60;;;;;;;10.99;100.00;100336.97;684629;28;1560;-63
2023/07/26 01:22:36;;;;;;;3.47;1.63;;;;;;;11.00;100.00;100335.22;685501;28;916;-62
2023/07/26 01:22:57;;;;;;;4.57;1.80;;;;;;;10.98;100.00;100329.13;690366;28;797;-63
2023/07/26 01:23:17;;;;;;;3.70;1.60;;;;;;;10.97;100.00;100330.03;686986;28;1530;-63
2023/07/26 01:23:39;;;;;;;3.33;1.58;;;;;;;10.98;100.00;100331.75;686781;28;1327;-63
2023/07/26 01:23:59;;;;;;;2.75;1.60;;;;;;;10.98;100.00;100336.97;685302;28;778;-63
2023/07/26 01:24:20;;;;;;;2.90;1.60;;;;;;;10.97;100.00;100332.66;681385;28;1494;-62
2023/07/26 01:24:40;;;;;;;3.23;1.60;;;;;;;10.96;100.00;100323.06;681485;29;842;-62
2023/07/26 01:25:01;;;;;;;3.55;1.60;;;;;;;10.97;100.00;100328.28;682048;28;4924;-63
2023/07/26 01:25:21;;;;;;;2.83;1.50;;;;;;;10.97;100.00;100328.28;681773;28;1399;-63
2023/07/26 01:25:42;;;;;;;3.63;1.70;;;;;;;10.98;100.00;100326.53;680798;29;775;-63
2023/07/26 01:26:03;;;;;;;3.63;1.73;;;;;;;10.98;100.00;100329.13;682041;28;1377;-63
2023/07/26 01:26:25;;;;;;;2.90;1.60;;;;;;;10.98;100.00;100318.66;684116;28;1486;-63
2023/07/26 01:26:47;;;;;;;3.15;1.70;;;;;;;10.97;100.00;100323.03;684992;28;1260;-63
2023/07/26 01:27:08;;;;;;;3.07;1.57;;;;;;;11.01;100.00;100323.88;684358;28;1786;-63
2023/07/26 01:27:28;;;;;;;3.25;1.65;;;;;;;11.03;100.00;100324.72;682160;29;877;-63
2023/07/26 01:27:48;;;;;;;3.83;1.90;;;;;;;11.03;100.00;100322.09;680843;28;4440;-63
2023/07/26 01:28:09;;;;;;;3.28;1.60;;;;;;;11.03;100.00;100320.34;681945;28;923;-63
2023/07/26 01:28:29;;;;;;;3.43;1.50;;;;;;;11.01;100.00;100314.28;682057;28;1122;-63
2023/07/26 01:28:50;;;;;;;3.40;1.67;;;;;;;11.01;100.00;100319.50;682292;28;898;-63
2023/07/26 01:29:10;;;;;;;3.73;1.90;;;;;;;11.01;100.00;100316.91;684270;28;1674;-63
2023/07/26 01:29:31;;;;;;;4.10;1.75;;;;;;;11.02;100.00;100317.75;682546;28;1213;-63
2023/07/26 01:29:55;;;;;;;4.03;1.70;;;;;;;11.02;100.00;100320.38;676705;29;1200;-62
2023/07/26 01:30:16;;;;;;;3.63;1.65;;;;;;;11.02;100.00;100320.38;676572;29;1568;-63
2023/07/26 01:30:36;;;;;;;3.08;1.58;;;;;;;11.01;100.00;100318.66;679857;29;905;-63
2023/07/26 01:30:59;;;;;;;3.17;1.60;;;;;;;11.02;100.00;100318.63;678571;28;4318;-62
2023/07/26 01:31:23;;;;;;;4.03;1.70;;;;;;;11.03;100.00;100312.50;679625;28;2537;-63
2023/07/26 01:31:43;;;;;;;3.90;1.60;;;;;;;11.02;100.00;100315.13;684026;28;1387;-63
2023/07/26 01:32:06;;;;;;;3.38;1.50;;;;;;;11.01;100.00;100309.06;687394;28;936;-63
2023/07/26 01:32:31;;;;;;;3.50;1.50;;;;;;;11.02;100.00;100320.38;684281;28;1451;-63
2023/07/26 01:32:53;;;;;;;3.25;1.70;;;;;;;11.03;100.00;100327.34;684208;28;984;-63
2023/07/26 01:33:14;;;;;;;3.15;1.70;;;;;;;11.01;100.00;100321.28;684240;28;1648;-62
2023/07/26 01:33:36;;;;;;;3.20;1.77;;;;;;;11.00;100.00;100316.91;682673;28;1388;-63
2023/07/26 01:33:59;;;;;;;3.83;1.60;;;;;;;10.95;100.00;100316.97;680249;29;5081;-63
2023/07/26 01:34:20;;;;;;;3.20;1.60;;;;;;;10.96;100.00;100317.84;681515;28;1680;-62
2023/07/26 01:34:40;;;;;;;3.50;1.60;;;;;;;10.95;100.00;100319.59;681412;28;989;-63
2023/07/26 01:35:01;;;;;;;3.60;1.53;;;;;;;10.96;100.00;100315.22;683334;28;915;-63
2023/07/26 01:35:23;;;;;;;3.58;1.70;;;;;;;10.95;100.00;100318.72;684146;28;1533;-62
2023/07/26 01:35:45;;;;;;;3.75;1.80;;;;;;;10.97;100.00;100312.59;685981;28;897;-62
2023/07/26 01:36:06;;;;;;;4.03;1.70;;;;;;;10.99;100.00;100320.41;685380;28;991;-63
2023/07/26 01:36:29;;;;;;;2.83;1.50;;;;;;;11.00;100.00;100316.91;686955;28;1797;-63
2023/07/26 01:36:51;;;;;;;3.30;1.73;;;;;;;11.03;100.00;100317.72;686979;28;4546;-62
2023/07/26 01:37:16;;;;;;;3.50;1.60;;;;;;;11.04;100.00;100319.47;686050;28;1534;-63
2023/07/26 01:37:37;;;;;;;3.47;1.70;;;;;;;11.03;100.00;100317.72;686658;28;813;-62
2023/07/26 01:37:59;;;;;;;3.13;1.50;;;;;;;11.03;100.00;100317.72;682461;28;969;-62
2023/07/26 01:38:21;;;;;;;3.28;1.65;;;;;;;11.03;100.00;100322.09;681042;28;1390;-62
2023/07/26 01:38:43;;;;;;;4.40;1.90;;;;;;;11.00;100.00;100314.31;683760;28;1326;-62
2023/07/26 01:39:04;;;;;;;3.78;1.60;;;;;;;10.99;100.00;100316.03;685181;28;5530;-63
2023/07/26 01:39:26;;;;;;;3.80;1.63;;;;;;;10.99;100.00;100315.19;682776;28;1770;-63
2023/07/26 01:39:47;;;;;;;3.22;1.50;;;;;;;10.98;100.00;100318.66;683001;28;4418;-62
2023/07/26 01:40:10;;;;;;;3.60;1.60;;;;;;;10.95;100.00;100316.97;682756;28;1926;-63
2023/07/26 01:40:31;;;;;;;3.30;1.70;;;;;;;10.94;100.00;100316.97;681509;28;889;-63
2023/07/26 01:40:52;;;;;;;3.35;1.70;;;;;;;10.93;100.00;100310.03;681797;28;1209;-63
2023/07/26 01:41:14;;;;;;;3.33;1.73;;;;;;;10.92;100.00;100313.53;679426;28;1471;-62
2023/07/26 01:41:36;;;;;;;4.07;1.70;;;;;;;10.92;100.00;100313.53;682877;28;898;-63
2023/07/26 01:41:59;;;;;;;3.40;1.80;;;;;;;10.90;100.00;100309.16;684608;28;904;-63
2023/07/26 01:42:19;;;;;;;2.80;1.55;;;;;;;10.94;100.00;100316.97;681047;28;1629;-63
2023/07/26 01:42:41;;;;;;;3.00;1.50;;;;;;;10.93;100.00;100315.25;682157;28;1240;-63
2023/07/26 01:43:02;;;;;;;3.47;1.60;;;;;;;10.93;100.00;100312.66;681766;28;4424;-63
2023/07/26 01:43:22;;;;;;;3.67;1.60;;;;;;;10.94;100.00;100316.97;681256;28;1577;-63
2023/07/26 01:43:44;;;;;;;3.25;1.60;;;;;;;10.96;100.00;100315.22;680205;29;1422;-62
2023/07/26 01:44:05;;;;;;;3.78;1.67;;;;;;;10.96;100.00;100318.69;683881;28;821;-63